WXM80 ListenWXM80 Stop

You find our weather info also at:

UK Metoffice

WeatherCloud

Weather Underground

Northeastern Weather Network

AWEKAS

Citizen Weather Observer Program (CWOP)

HAMweather, WeatherForYou, PWS Weather


Weather Underground History page Text

Daily Summary for February 9, 2017 Units:  Metric    English   Both
« Previous Day
Next Day »
Daily Weekly Monthly Yearly Custom
  High: Low: Average:
Temperature: 4.7 °C -7.5 °C -1.9 °C
Dew Point: 2.4 °C -12.2 °C -4.1 °C
Humidity: 97 % 69 % 86 %
Wind Speed: 27.2 km/h 0.8 km/h 13.8 km/h
Wind Gust: 46.7 km/h - -
Wind:- - SSW
Pressure: 1016.5 hPa 996.8 hPa -
Precipitation: 0 mm    
Historical Graphs
 
 
Tabular Data for February 9, 2017
Time Temperature Dew Point Pressure Wind Wind Speed Wind Gust Humidity Rainfall Rate (Hourly)
00:02 4.7 °C 2.2 °C 1005 hPa ENE 3.7 km/h 5.6 km/h 84 % 0 mm
00:07 4.6 °C 2.1 °C 1005 hPa ENE 5 km/h 7.4 km/h 84 % 0 mm
00:12 4.6 °C 2.3 °C 1005 hPa ENE 6.8 km/h 11.3 km/h 85 % 0 mm
00:17 4.6 °C 2.4 °C 1005 hPa NE 3.4 km/h 11.1 km/h 86 % 0 mm
00:22 4.6 °C 2.4 °C 1005 hPa ENE 1.9 km/h 5.6 km/h 86 % 0 mm
00:27 4.6 °C 2.4 °C 1005 hPa ENE 0.8 km/h 3.7 km/h 86 % 0 mm
00:33 4.4 °C 2.2 °C 1005 hPa ENE 5.3 km/h 11.1 km/h 85 % 0 mm
00:38 4.4 °C 1.9 °C 1004.6 hPa ENE 6 km/h 8 km/h 84 % 0 mm
00:43 4.3 °C 1.7 °C 1004.6 hPa ENE 6.6 km/h 11.1 km/h 83 % 0 mm
00:48 4.3 °C 1.7 °C 1004.3 hPa ENE 8.9 km/h 13 km/h 83 % 0 mm
00:53 4.3 °C 1.3 °C 1004.3 hPa ENE 10.9 km/h 14.8 km/h 81 % 0 mm
00:58 4.2 °C 0.7 °C 1004.3 hPa ENE 13.2 km/h 18.5 km/h 78 % 0 mm
01:03 4.2 °C 0.5 °C 1003.6 hPa NE 13 km/h 16.7 km/h 77 % 0 mm
01:08 4.1 °C 0.4 °C 1003.6 hPa ENE 14.5 km/h 19.3 km/h 77 % 0 mm
01:13 4.1 °C 0.6 °C 1003.6 hPa ENE 14.6 km/h 18.5 km/h 78 % 0 mm
01:18 4 °C 0.5 °C 1003.3 hPa ENE 12.9 km/h 19.3 km/h 78 % 0 mm
01:23 3.9 °C 0.5 °C 1003.3 hPa ENE 11.3 km/h 19.3 km/h 78 % 0 mm
01:28 3.9 °C 0.4 °C 1003.3 hPa ENE 12.9 km/h 19.3 km/h 78 % 0 mm
01:33 3.9 °C 0.4 °C 1003.3 hPa ENE 12.9 km/h 20.9 km/h 78 % 0 mm
01:38 3.9 °C 0.4 °C 1003.6 hPa ENE 11.3 km/h 19.3 km/h 78 % 0 mm
01:43 3.8 °C 0.3 °C 1003.6 hPa ENE 11.3 km/h 19.3 km/h 78 % 0 mm
01:48 3.8 °C 0.3 °C 1003.6 hPa ENE 9.7 km/h 16.1 km/h 78 % 0 mm
01:53 3.8 °C 0.5 °C 1003.6 hPa NE 9.5 km/h 14.8 km/h 79 % 0 mm
01:58 3.8 °C 0.4 °C 1003.6 hPa ENE 9.5 km/h 14.8 km/h 79 % 0 mm
02:03 3.8 °C 0.3 °C 1003.3 hPa NE 9.7 km/h 18.5 km/h 78 % 0 mm
02:09 3.7 °C 0.2 °C 1003.3 hPa ENE 5.3 km/h 13 km/h 78 % 0 mm
02:14 3.7 °C 0.1 °C 1003.3 hPa ENE 9.2 km/h 14.5 km/h 77 % 0 mm
02:19 3.7 °C 0 °C 1003.3 hPa NE 7.6 km/h 11.3 km/h 77 % 0 mm
02:24 3.7 °C -0.2 °C 1002.9 hPa ENE 9.3 km/h 14.5 km/h 76 % 0 mm
02:29 3.6 °C -0.6 °C 1002.6 hPa ENE 14 km/h 18.5 km/h 74 % 0 mm
02:34 3.6 °C -0.4 °C 1002.6 hPa East 11.7 km/h 18.5 km/h 75 % 0 mm
02:39 3.6 °C -0.7 °C 1002.3 hPa ENE 11.7 km/h 16.7 km/h 74 % 0 mm
02:44 3.5 °C -0.5 °C 1002.3 hPa ENE 11.9 km/h 14.8 km/h 75 % 0 mm
02:49 3.5 °C -0.5 °C 1002.3 hPa ENE 10.1 km/h 16.7 km/h 75 % 0 mm
02:55 3.4 °C -0.8 °C 1001.9 hPa ENE 13 km/h 18.5 km/h 74 % 0 mm
03:00 3.4 °C -0.8 °C 1001.9 hPa ENE 10.3 km/h 16.7 km/h 74 % 0 mm
03:05 3.4 °C -0.4 °C 1001.9 hPa NE 6.6 km/h 14.8 km/h 76 % 0 mm
03:10 3.4 °C -0.4 °C 1001.6 hPa NE 8 km/h 14.8 km/h 76 % 0 mm
03:15 3.4 °C -0.4 °C 1001.6 hPa NE 8.5 km/h 13 km/h 76 % 0 mm
03:20 3.3 °C -0.5 °C 1001.2 hPa NE 10.9 km/h 16.7 km/h 76 % 0 mm
03:25 3.3 °C -0.5 °C 1001.2 hPa ENE 9.7 km/h 22.2 km/h 76 % 0 mm
03:30 3.3 °C -0.7 °C 1001.2 hPa NE 5 km/h 14.8 km/h 75 % 0 mm
03:35 3.3 °C -0.7 °C 1001.2 hPa ENE 5.5 km/h 14.8 km/h 75 % 0 mm
03:40 3.3 °C -0.6 °C 1001.2 hPa NNE 6.1 km/h 13 km/h 76 % 0 mm
03:46 3.3 °C -0.6 °C 1001.2 hPa ENE 5.6 km/h 11.1 km/h 76 % 0 mm
03:51 3.2 °C -0.8 °C 1001.2 hPa NE 11.3 km/h 14.8 km/h 75 % 0 mm
03:56 3.1 °C -1.3 °C 1001.2 hPa ENE 9.2 km/h 16.7 km/h 73 % 0 mm
04:01 3.1 °C -1.1 °C 1001.6 hPa NE 6.9 km/h 9.7 km/h 74 % 0 mm
04:06 3.1 °C -1.1 °C 1001.6 hPa NNE 12.1 km/h 18.5 km/h 74 % 0 mm
04:11 3.1 °C -1.1 °C 1001.9 hPa NNE 11.4 km/h 18.5 km/h 74 % 0 mm
04:16 3.1 °C -1.5 °C 1001.6 hPa NNE 14.3 km/h 22.2 km/h 72 % 0 mm
04:21 3.1 °C -1.5 °C 1001.6 hPa NNE 8 km/h 14.8 km/h 72 % 0 mm
04:26 3.1 °C -1.1 °C 1001.6 hPa NNE 11.9 km/h 19.3 km/h 74 % 0 mm
04:31 3.1 °C -1.3 °C 1001.2 hPa NNE 14.6 km/h 24.1 km/h 73 % 0 mm
04:36 2.9 °C -1.1 °C 1001.6 hPa NE 14 km/h 18.5 km/h 75 % 0 mm
04:41 2.7 °C -0.9 °C 1001.6 hPa NNE 10 km/h 16.1 km/h 77 % 0 mm
04:46 2.6 °C -0.7 °C 1001.2 hPa NE 9 km/h 13 km/h 79 % 0 mm
04:51 2.3 °C -0.6 °C 1001.6 hPa NNE 14 km/h 18.5 km/h 81 % 0 mm
04:56 2.1 °C -0.6 °C 1001.6 hPa NE 12.2 km/h 13 km/h 83 % 0 mm
05:01 1.8 °C -0.4 °C 1001.2 hPa North 13 km/h 18.5 km/h 85 % 0 mm
05:06 1.5 °C -0.6 °C 1001.6 hPa NNE 10 km/h 18.5 km/h 86 % 0 mm
05:11 1.3 °C -0.4 °C 1002.3 hPa North 6 km/h 11.1 km/h 88 % 0.25 mm
05:16 1.2 °C -0.4 °C 1001.9 hPa NNE 9.5 km/h 14.5 km/h 89 % 0.25 mm
05:19 1 °C -0.6 °C 1001.9 hPa North 9.7 km/h 16.7 km/h 89 % 0.25 mm
05:24 0.9 °C -0.6 °C 1001.6 hPa NNE 8.9 km/h 17.7 km/h 90 % 0.51 mm
05:30 0.8 °C -0.6 °C 1001.2 hPa NNE 10.6 km/h 14.8 km/h 90 % 0.76 mm
05:35 0.7 °C -0.6 °C 1000.6 hPa NE 10.9 km/h 20.4 km/h 91 % 1.02 mm
05:40 0.6 °C -0.6 °C 1000.6 hPa NE 9.5 km/h 14.8 km/h 92 % 1.27 mm
05:45 0.6 °C -0.6 °C 1000.6 hPa North 12.2 km/h 20.9 km/h 92 % 1.52 mm
05:50 0.4 °C -0.7 °C 1000.6 hPa NNE 14.2 km/h 18.5 km/h 92 % 1.78 mm
05:55 0.4 °C -0.6 °C 1000.6 hPa North 13.7 km/h 20.4 km/h 93 % 2.03 mm
06:00 0.3 °C -0.7 °C 1000.2 hPa North 14.8 km/h 20.4 km/h 93 % 2.29 mm
06:05 0.3 °C -0.7 °C 1000.2 hPa NNE 9.3 km/h 16.1 km/h 93 % 2.29 mm
06:10 0.2 °C -0.6 °C 1000.2 hPa NNE 17.1 km/h 24.1 km/h 94 % 2.29 mm
06:15 0.2 °C -0.6 °C 1000.6 hPa NNE 16.7 km/h 24.1 km/h 94 % 2.54 mm
06:20 0.2 °C -0.7 °C 1000.6 hPa NE 16.7 km/h 20.4 km/h 94 % 2.54 mm
06:25 0.1 °C -0.7 °C 1000.9 hPa NE 15.3 km/h 18.5 km/h 94 % 2.54 mm
06:30 0.1 °C -0.8 °C 1000.6 hPa North 16.1 km/h 22.2 km/h 94 % 2.54 mm
06:35 0 °C -0.8 °C 1000.6 hPa NNE 13.2 km/h 24.1 km/h 94 % 2.54 mm
06:40 -0.1 °C -0.9 °C 1000.6 hPa North 10.5 km/h 22.2 km/h 94 % 2.29 mm
06:45 -0.2 °C -1 °C 1000.6 hPa NNE 14.5 km/h 25.7 km/h 94 % 2.29 mm
06:50 -0.3 °C -1.1 °C 1000.6 hPa NNE 13.2 km/h 18.5 km/h 94 % 2.29 mm
06:51 -0.3 °C -1.1 °C 1000.6 hPa NE 17.2 km/h 25.7 km/h 94 % 2.29 mm
06:56 -0.3 °C -1 °C 1000.6 hPa NNE 12.1 km/h 20.4 km/h 95 % 2.29 mm
07:01 -0.3 °C -1.1 °C 1000.2 hPa NE 15.4 km/h 24.1 km/h 95 % 2.29 mm
07:06 -0.3 °C -1.1 °C 1000.2 hPa NNW 14 km/h 19.3 km/h 95 % 2.29 mm
07:11 -0.3 °C -1.1 °C 999.9 hPa NNE 12.6 km/h 18.5 km/h 95 % 2.54 mm
07:16 -0.3 °C -1.1 °C 999.9 hPa NNE 13 km/h 22.2 km/h 95 % 2.54 mm
07:21 -0.4 °C -1.2 °C 999.9 hPa North 9.8 km/h 22.2 km/h 95 % 2.54 mm
07:26 -0.5 °C -1.2 °C 999.5 hPa North 13.2 km/h 20.4 km/h 95 % 2.54 mm
07:31 -0.6 °C -1.3 °C 999.5 hPa NE 13 km/h 24.1 km/h 95 % 2.79 mm
07:36 -0.6 °C -1.3 °C 999.5 hPa North 14.3 km/h 24.1 km/h 95 % 2.79 mm
07:42 -0.6 °C -1.3 °C 999.5 hPa North 14.6 km/h 22.5 km/h 95 % 2.54 mm
07:47 -0.7 °C -1.4 °C 999.5 hPa NNE 12.2 km/h 24.1 km/h 95 % 2.54 mm
07:52 -0.7 °C -1.4 °C 999.5 hPa North 17.4 km/h 22.2 km/h 95 % 2.54 mm
07:57 -0.7 °C -1.4 °C 999.5 hPa North 15.6 km/h 24.1 km/h 95 % 2.79 mm
08:02 -0.7 °C -1.4 °C 999.5 hPa North 14.3 km/h 18.5 km/h 95 % 2.54 mm
08:07 -0.7 °C -1.4 °C 999.5 hPa North 16.3 km/h 31.5 km/h 95 % 2.79 mm
08:12 -0.8 °C -1.5 °C 999.2 hPa NW 14.3 km/h 20.4 km/h 95 % 2.79 mm
08:17 -0.8 °C -1.5 °C 999.2 hPa NNE 18.2 km/h 24.1 km/h 95 % 2.79 mm
08:22 -0.8 °C -1.4 °C 999.2 hPa North 12.7 km/h 31.5 km/h 96 % 2.79 mm
08:27 -0.8 °C -1.3 °C 999.2 hPa North 19.3 km/h 22.5 km/h 96 % 2.79 mm
08:32 -0.8 °C -1.3 °C 998.9 hPa North 14.3 km/h 22.2 km/h 96 % 2.79 mm
08:37 -0.7 °C -1.3 °C 998.9 hPa NNE 13.2 km/h 22.2 km/h 96 % 2.79 mm
08:42 -0.7 °C -1.2 °C 998.5 hPa NNE 17.2 km/h 25.9 km/h 96 % 2.79 mm
08:47 -0.6 °C -1.2 °C 998.2 hPa NNW 13.5 km/h 24.1 km/h 96 % 2.79 mm
08:52 -0.6 °C -1.1 °C 998.2 hPa NE 16.3 km/h 27.8 km/h 96 % 3.05 mm
08:57 -0.5 °C -1.1 °C 998.2 hPa NNE 18.7 km/h 27.4 km/h 96 % 2.79 mm
09:02 -0.3 °C -0.9 °C 998.2 hPa North 20.9 km/h 31.5 km/h 96 % 2.79 mm
09:07 -0.3 °C -0.8 °C 998.2 hPa NE 16.6 km/h 25.9 km/h 96 % 2.79 mm
09:12 -0.1 °C -0.7 °C 998.2 hPa NNE 17.2 km/h 40.7 km/h 96 % 2.79 mm
09:18 0 °C -0.4 °C 998.2 hPa NNE 22.4 km/h 42.6 km/h 97 % 2.79 mm
09:23 0.1 °C -0.4 °C 997.9 hPa NNE 20.4 km/h 31.5 km/h 97 % 2.79 mm
09:28 0.1 °C -0.3 °C 997.9 hPa NNE 23.2 km/h 38.6 km/h 97 % 2.79 mm
09:33 0.1 °C -0.3 °C 998.2 hPa NNE 22.4 km/h 35.4 km/h 97 % 2.79 mm
09:38 0.1 °C -0.3 °C 998.2 hPa NE 20.4 km/h 31.5 km/h 97 % 2.79 mm
09:43 0.2 °C -0.3 °C 997.9 hPa NNE 20.8 km/h 38.9 km/h 97 % 2.79 mm
09:48 0.2 °C -0.3 °C 997.9 hPa North 21.7 km/h 42.6 km/h 97 % 2.79 mm
09:53 0.2 °C -0.3 °C 997.9 hPa NNE 15.1 km/h 27.8 km/h 97 % 2.79 mm
09:58 0.2 °C -0.3 °C 997.9 hPa North 18.7 km/h 30.6 km/h 97 % 2.79 mm
10:03 0.1 °C -0.3 °C 997.5 hPa North 18.2 km/h 33.3 km/h 97 % 2.79 mm
10:08 0.1 °C -0.3 °C 997.5 hPa North 19.3 km/h 37 km/h 97 % 0 mm
10:13 0.1 °C -0.4 °C 997.5 hPa North 19.3 km/h 37 km/h 97 % 0 mm
10:18 0 °C -0.4 °C 997.5 hPa North 24.1 km/h 37 km/h 97 % 0 mm
10:23 -0.1 °C -0.6 °C 997.5 hPa NNE 20.9 km/h 33.8 km/h 97 % 0 mm
10:28 -0.2 °C -0.6 °C 997.5 hPa North 25.7 km/h 46.7 km/h 97 % 0 mm
10:33 -0.3 °C -0.7 °C 997.5 hPa North 24.1 km/h 37 km/h 97 % 0 mm
10:38 -0.4 °C -0.8 °C 997.9 hPa North 24.1 km/h 38.6 km/h 97 % 0 mm
10:43 -0.4 °C -0.9 °C 997.5 hPa North 20.9 km/h 32.2 km/h 97 % 0 mm
10:48 -0.4 °C -0.9 °C 997.2 hPa North 22.5 km/h 35.4 km/h 97 % 0.25 mm
10:53 -0.6 °C -1 °C 997.2 hPa North 16.1 km/h 37 km/h 97 % 0 mm
10:58 -0.8 °C -1.2 °C 997.5 hPa NNW 19.8 km/h 37 km/h 97 % 1.02 mm
11:03 -0.8 °C -1.2 °C 997.5 hPa North 13 km/h 22.2 km/h 97 % 1.02 mm
11:09 -0.9 °C -1.3 °C 997.5 hPa WNW 15.3 km/h 29.6 km/h 97 % 1.02 mm
11:14 -0.9 °C -1.3 °C 997.9 hPa NNE 12.7 km/h 20.4 km/h 97 % 0.76 mm
11:19 -1.1 °C -1.4 °C 997.9 hPa NNW 18.7 km/h 37 km/h 97 % 0.76 mm
11:24 -1.2 °C -1.6 °C 997.5 hPa North 15.6 km/h 42.6 km/h 97 % 1.02 mm
11:29 -1.3 °C -1.7 °C 997.5 hPa NNW 15.3 km/h 24.1 km/h 97 % 0.76 mm
11:34 -1.3 °C -1.7 °C 997.2 hPa North 19.3 km/h 31.5 km/h 97 % 0.76 mm
11:39 -1.4 °C -1.8 °C 997.2 hPa North 15.3 km/h 24.1 km/h 97 % 1.02 mm
11:44 -1.6 °C -2.1 °C 997.5 hPa North 15.8 km/h 31.5 km/h 96 % 1.02 mm
11:49 -1.6 °C -2 °C 997.2 hPa NNW 15.8 km/h 31.5 km/h 97 % 0.76 mm
11:54 -1.7 °C -2.1 °C 997.2 hPa North 18.7 km/h 37 km/h 97 % 0.76 mm
11:59 -1.8 °C -2.2 °C 997.2 hPa NNE 20 km/h 35.2 km/h 97 % 1.02 mm
12:04 -1.9 °C -2.5 °C 996.8 hPa NNE 22.7 km/h 27.4 km/h 96 % 1.02 mm
12:09 -2.1 °C -2.6 °C 997.2 hPa NE 17.9 km/h 31.5 km/h 96 % 0.76 mm
12:14 -2.1 °C -2.6 °C 997.2 hPa NNW 16.1 km/h 31.5 km/h 96 % 0.76 mm
12:19 -2.1 °C -2.5 °C 997.2 hPa North 22.7 km/h 37 km/h 97 % 0.51 mm
12:25 -2.2 °C -2.8 °C 997.5 hPa NNW 27.2 km/h 38.9 km/h 96 % 0.76 mm
12:30 -2.3 °C -2.9 °C 997.2 hPa NW 17.7 km/h 29.6 km/h 96 % 0.76 mm
12:35 -2.3 °C -2.9 °C 997.5 hPa NW 12.2 km/h 29.6 km/h 96 % 0.51 mm
12:40 -2.3 °C -2.9 °C 997.9 hPa North 12.1 km/h 29.6 km/h 96 % 0.51 mm
12:45 -2.4 °C -2.9 °C 997.9 hPa North 17.7 km/h 35.4 km/h 96 % 0.51 mm
12:50 -2.5 °C -3.1 °C 997.9 hPa NNW 18.2 km/h 33.3 km/h 96 % 0.51 mm
12:55 -2.6 °C -3.2 °C 997.9 hPa NNW 17.7 km/h 20.9 km/h 96 % 0.51 mm
13:00 -2.7 °C -3.2 °C 998.2 hPa NW 13.5 km/h 20.4 km/h 96 % 0.51 mm
13:05 -2.7 °C -3.3 °C 998.2 hPa North 20.1 km/h 37 km/h 96 % 0.51 mm
13:10 -2.8 °C -3.3 °C 998.5 hPa NNW 13 km/h 20.4 km/h 96 % 0.51 mm
13:15 -2.8 °C -3.3 °C 998.5 hPa WNW 11.1 km/h 18.5 km/h 96 % 0.51 mm
13:20 -2.8 °C -3.4 °C 998.5 hPa NW 14.8 km/h 25.9 km/h 96 % 0.51 mm
13:25 -2.8 °C -3.4 °C 998.9 hPa NW 19.2 km/h 29.6 km/h 96 % 0.25 mm
13:30 -2.9 °C -3.5 °C 998.9 hPa NNW 16.3 km/h 27.8 km/h 96 % 0.25 mm
13:35 -3.1 °C -3.6 °C 998.9 hPa NNW 19.3 km/h 24.1 km/h 96 % 0.25 mm
13:40 -3.2 °C -3.7 °C 998.9 hPa NW 16.3 km/h 29.6 km/h 96 % 0.25 mm
13:45 -3.2 °C -3.8 °C 999.2 hPa North 12.2 km/h 24.1 km/h 96 % 0.25 mm
13:50 -3.2 °C -3.8 °C 999.2 hPa NNE 15.9 km/h 29.6 km/h 96 % 0.25 mm
13:55 -3.2 °C -3.8 °C 999.5 hPa NW 7.1 km/h 22.2 km/h 96 % 0 mm
14:00 -3.3 °C -3.8 °C 999.5 hPa NNW 15.6 km/h 27.8 km/h 96 % 0 mm
14:05 -3.3 °C -3.9 °C 999.9 hPa North 11.1 km/h 24.1 km/h 96 % 0 mm
14:10 -3.4 °C -3.9 °C 999.9 hPa North 8.7 km/h 22.2 km/h 96 % 0 mm
14:15 -3.4 °C -4 °C 999.9 hPa NW 13 km/h 22.2 km/h 96 % 0 mm
14:20 -3.6 °C -4.2 °C 1000.2 hPa NNW 10.5 km/h 27.8 km/h 95 % 0 mm
14:26 -3.7 °C -4.3 °C 999.9 hPa WNW 9.7 km/h 16.1 km/h 95 % 0 mm
14:31 -3.7 °C -4.4 °C 1000.2 hPa NNW 18.8 km/h 31.5 km/h 95 % 0 mm
14:36 -3.8 °C -4.4 °C 1000.2 hPa NNW 17.2 km/h 32.2 km/h 95 % 0 mm
14:41 -3.8 °C -4.5 °C 1000.2 hPa NNW 18.7 km/h 33.8 km/h 95 % 0 mm
14:46 -3.9 °C -4.6 °C 1000.2 hPa NW 16.7 km/h 41.8 km/h 95 % 0 mm
14:51 -4 °C -4.7 °C 1000.2 hPa North 18.3 km/h 29.6 km/h 95 % 0 mm
14:56 -4 °C -4.7 °C 1000.6 hPa North 16.7 km/h 37 km/h 95 % 0 mm
15:01 -4 °C -4.7 °C 1000.6 hPa North 15.6 km/h 29.6 km/h 95 % 0 mm
15:06 -4 °C -4.7 °C 1000.9 hPa NNW 10.5 km/h 20.9 km/h 95 % 0 mm
15:11 -4 °C -4.7 °C 1001.2 hPa NW 17.2 km/h 31.5 km/h 95 % 0 mm
15:16 -4 °C -4.7 °C 1001.2 hPa NW 13.5 km/h 31.5 km/h 95 % 0 mm
15:21 -4.1 °C -4.7 °C 1001.6 hPa NNW 15.9 km/h 29.6 km/h 95 % 0 mm
15:26 -4.1 °C -4.8 °C 1001.6 hPa NW 18 km/h 31.5 km/h 95 % 0 mm
15:31 -4.2 °C -4.8 °C 1001.6 hPa NW 13.4 km/h 37 km/h 95 % 0 mm
15:36 -4.2 °C -4.8 °C 1001.9 hPa NNW 10.8 km/h 24.1 km/h 95 % 0 mm
15:41 -4.2 °C -4.9 °C 1001.9 hPa North 15.6 km/h 25.9 km/h 95 % 0 mm
15:46 -4.2 °C -5.1 °C 1001.9 hPa NNW 12.4 km/h 22.2 km/h 94 % 0 mm
15:51 -4.3 °C -5.1 °C 1002.3 hPa NNE 17.9 km/h 24.1 km/h 94 % 0 mm
15:56 -4.3 °C -5.2 °C 1002.3 hPa NW 14.2 km/h 25.9 km/h 94 % 0 mm
16:01 -4.3 °C -5.2 °C 1002.3 hPa NNW 11.6 km/h 24.1 km/h 94 % 0 mm
16:06 -4.3 °C -5.2 °C 1002.6 hPa NNW 13.8 km/h 24.1 km/h 94 % 0 mm
16:11 -4.3 °C -5.2 °C 1002.6 hPa NW 12.4 km/h 20.4 km/h 94 % 0 mm
16:16 -4.3 °C -5.2 °C 1002.6 hPa NNW 9.3 km/h 13 km/h 94 % 0 mm
16:22 -4.3 °C -5.2 °C 1002.6 hPa NNW 12.6 km/h 24.1 km/h 94 % 0 mm
16:27 -4.3 °C -5.1 °C 1002.9 hPa North 13.2 km/h 25.7 km/h 94 % 0 mm
16:32 -4.3 °C -5.2 °C 1003.3 hPa NW 16.3 km/h 33.3 km/h 94 % 0 mm
16:37 -4.4 °C -5.2 °C 1003.6 hPa NW 22 km/h 40.7 km/h 94 % 0 mm
16:42 -4.5 °C -5.3 °C 1003.6 hPa WNW 18.7 km/h 33.3 km/h 94 % 0 mm
16:47 -4.6 °C -5.5 °C 1003.9 hPa NW 14.6 km/h 29.6 km/h 93 % 0 mm
16:52 -4.7 °C -5.6 °C 1003.9 hPa NW 15.6 km/h 29.6 km/h 93 % 0 mm
16:57 -4.7 °C -5.8 °C 1004.3 hPa WNW 14.8 km/h 31.5 km/h 92 % 0 mm
17:02 -4.8 °C -5.9 °C 1004.3 hPa WNW 5.3 km/h 27.8 km/h 92 % 0 mm
17:07 -4.8 °C -5.9 °C 1004.3 hPa West 9.7 km/h 31.5 km/h 92 % 0 mm
17:12 -4.8 °C -5.9 °C 1004.6 hPa WNW 19 km/h 32.2 km/h 92 % 0 mm
17:17 -4.9 °C -6.1 °C 1004.6 hPa WNW 7.7 km/h 22.2 km/h 91 % 0 mm
17:23 -4.9 °C -6.2 °C 1004.6 hPa NW 11.6 km/h 18.5 km/h 91 % 0 mm
17:28 -4.9 °C -6.2 °C 1004.6 hPa NNW 6.1 km/h 13 km/h 91 % 0 mm
17:33 -4.9 °C -6.2 °C 1004.6 hPa WNW 11.7 km/h 19.3 km/h 91 % 0 mm
17:38 -4.9 °C -6.3 °C 1004.6 hPa NW 9.7 km/h 18.5 km/h 90 % 0 mm
17:43 -4.9 °C -6.3 °C 1005 hPa West 12.1 km/h 25.9 km/h 90 % 0 mm
17:52 -4.9 °C -6.6 °C 1005 hPa WSW 12.7 km/h 24.1 km/h 88 % 0 mm
18:02 -4.9 °C -7.4 °C 1005.3 hPa NW 13.7 km/h 38.9 km/h 83 % 0 mm
18:07 -4.9 °C -7.4 °C 1005.6 hPa NNW 15.9 km/h 24.1 km/h 83 % 0 mm
18:12 -5 °C -7.6 °C 1005.6 hPa WNW 12.7 km/h 22.2 km/h 82 % 0 mm
18:17 -5 °C -7.4 °C 1006 hPa NW 10.9 km/h 18.5 km/h 83 % 0 mm
18:22 -5 °C -7.4 °C 1006 hPa NNW 8.5 km/h 20.4 km/h 83 % 0 mm
18:27 -5 °C -7.6 °C 1006.3 hPa WNW 16.6 km/h 31.5 km/h 82 % 0 mm
18:33 -4.9 °C -7.7 °C 1006.3 hPa WNW 11.4 km/h 24.1 km/h 81 % 0 mm
18:38 -4.9 °C -7.7 °C 1006.3 hPa WNW 10.9 km/h 20.4 km/h 81 % 0 mm
18:43 -5 °C -7.9 °C 1006.7 hPa WNW 10.8 km/h 25.9 km/h 80 % 0 mm
18:48 -5 °C -8.2 °C 1007 hPa NW 16.6 km/h 16.6 km/h 78 % 0 mm
18:53 -5.1 °C -8.4 °C 1007 hPa NW 9.7 km/h 32.2 km/h 77 % 0 mm
18:58 -5.2 °C -8.9 °C 1007.3 hPa West 12.9 km/h 27.8 km/h 75 % 0 mm
19:03 -5.2 °C -8.9 °C 1007.3 hPa NNW 16.6 km/h 24.1 km/h 75 % 0 mm
19:08 -5.3 °C -9.2 °C 1007.7 hPa WNW 24 km/h 32.2 km/h 74 % 0 mm
19:14 -5.3 °C -9.1 °C 1007.7 hPa NW 11.1 km/h 27.8 km/h 75 % 0 mm
19:19 -5.4 °C -9.2 °C 1008 hPa NNW 16.3 km/h 25.9 km/h 75 % 0 mm
19:24 -5.5 °C -9.2 °C 1008 hPa WNW 19.5 km/h 31.5 km/h 75 % 0 mm
19:29 -5.6 °C -9.4 °C 1008.4 hPa NNW 7.4 km/h 19.3 km/h 74 % 0 mm
19:34 -5.7 °C -9.6 °C 1008.4 hPa NW 13.5 km/h 22.5 km/h 74 % 0 mm
19:39 -5.8 °C -9.7 °C 1008.7 hPa NW 12.6 km/h 20.9 km/h 74 % 0 mm
19:44 -5.9 °C -9.9 °C 1009 hPa WNW 19.5 km/h 20.9 km/h 73 % 0 mm
19:49 -6.1 °C -10.3 °C 1009 hPa NNW 17.5 km/h 27.8 km/h 72 % 0 mm
19:54 -6.2 °C -10.4 °C 1009 hPa NW 18 km/h 42.6 km/h 72 % 0 mm
19:59 -6.3 °C -10.3 °C 1009.4 hPa West 14.5 km/h 25.9 km/h 73 % 0 mm
20:05 -6.4 °C -10.4 °C 1009.7 hPa WSW 10.8 km/h 27.4 km/h 73 % 0 mm
20:10 -6.4 °C -10.8 °C 1009.7 hPa NW 20.9 km/h 42.6 km/h 71 % 0 mm
20:15 -6.6 °C -10.8 °C 1010 hPa WNW 13.5 km/h 31.5 km/h 72 % 0 mm
20:20 -6.6 °C -10.7 °C 1010 hPa NNW 11.3 km/h 31.5 km/h 73 % 0 mm
20:26 -6.7 °C -10.9 °C 1010.4 hPa SW 9.2 km/h 18.5 km/h 72 % 0 mm
20:31 -6.8 °C -10.8 °C 1010.7 hPa NW 16.3 km/h 25.7 km/h 73 % 0 mm
20:36 -6.8 °C -11.3 °C 1010.7 hPa WNW 11.1 km/h 25.9 km/h 70 % 0 mm
20:41 -6.8 °C -11.2 °C 1011.1 hPa WNW 14 km/h 25.9 km/h 71 % 0 mm
20:46 -6.9 °C -11.3 °C 1011.1 hPa NNW 21.7 km/h 31.5 km/h 71 % 0 mm
20:48 -6.9 °C -11.3 °C 1011.1 hPa West 14 km/h 29 km/h 71 % 0 mm
20:53 -6.9 °C -11.5 °C 1011.1 hPa NNW 14.8 km/h 27.8 km/h 70 % 0 mm
20:58 -7 °C -11.4 °C 1011.4 hPa NW 13.8 km/h 32.2 km/h 71 % 0 mm
21:03 -7 °C -11.4 °C 1011.7 hPa West 14 km/h 35.2 km/h 71 % 0 mm
21:08 -7.1 °C -11.3 °C 1011.7 hPa NW 14.8 km/h 27.8 km/h 72 % 0 mm
21:13 -7.1 °C -11.4 °C 1012.1 hPa WNW 18.3 km/h 29.6 km/h 71 % 0 mm
21:18 -7.1 °C -11.7 °C 1012.1 hPa NW 17.7 km/h 37 km/h 70 % 0 mm
21:23 -7.2 °C -11.6 °C 1012.4 hPa West 11.6 km/h 22.2 km/h 71 % 0 mm
21:25 -7.2 °C -11.6 °C 1012.4 hPa NNW 16.4 km/h 31.5 km/h 71 % 0 mm
21:30 -7.2 °C -11.8 °C 1012.4 hPa North 15.1 km/h 31.5 km/h 70 % 0 mm
21:35 -7.3 °C -11.8 °C 1012.8 hPa WNW 12.9 km/h 22.2 km/h 70 % 0 mm
21:40 -7.3 °C -11.8 °C 1012.8 hPa SW 13 km/h 29.6 km/h 70 % 0 mm
21:45 -7.3 °C -11.9 °C 1012.8 hPa North 15.9 km/h 32.2 km/h 70 % 0 mm
21:50 -7.3 °C -11.9 °C 1013.1 hPa WNW 17.5 km/h 31.5 km/h 70 % 0 mm
21:55 -7.4 °C -11.9 °C 1013.1 hPa NW 13.5 km/h 31.5 km/h 70 % 0 mm
21:57 -7.4 °C -11.7 °C 1013.1 hPa NNW 16.9 km/h 27.4 km/h 71 % 0 mm
22:02 -7.4 °C -11.8 °C 1013.4 hPa NW 13.8 km/h 31.5 km/h 71 % 0 mm
22:07 -7.4 °C -11.9 °C 1013.8 hPa NW 10.3 km/h 19.3 km/h 70 % 0 mm
22:12 -7.4 °C -11.8 °C 1013.8 hPa NW 11.7 km/h 27.8 km/h 71 % 0 mm
22:17 -7.4 °C -12 °C 1014.1 hPa WNW 8.9 km/h 24.1 km/h 70 % 0 mm
22:22 -7.4 °C -11.8 °C 1014.1 hPa NW 11.6 km/h 20.4 km/h 71 % 0 mm
22:27 -7.4 °C -12 °C 1014.1 hPa NW 13.4 km/h 22.2 km/h 70 % 0 mm
22:32 -7.5 °C -12.1 °C 1014.4 hPa WNW 10.3 km/h 31.5 km/h 70 % 0 mm
22:37 -7.5 °C -12.1 °C 1014.4 hPa NNW 18.3 km/h 24.1 km/h 70 % 0 mm
22:38 -7.5 °C -12.1 °C 1014.4 hPa NW 18 km/h 25.9 km/h 70 % 0 mm
22:43 -7.5 °C -12.2 °C 1014.4 hPa WNW 14.2 km/h 24.1 km/h 69 % 0 mm
22:48 -7.5 °C -12.1 °C 1014.8 hPa NW 10.9 km/h 16.1 km/h 70 % 0 mm
22:53 -7.5 °C -12.1 °C 1014.8 hPa West 13 km/h 29 km/h 70 % 0 mm
22:58 -7.4 °C -12 °C 1014.8 hPa NNW 10.8 km/h 18.5 km/h 70 % 0 mm
23:03 -7.4 °C -12.2 °C 1015.1 hPa NW 13.4 km/h 19.3 km/h 69 % 0 mm
23:08 -7.4 °C -12 °C 1015.1 hPa WNW 6.8 km/h 25.9 km/h 70 % 0 mm
23:13 -7.4 °C -12.2 °C 1015.5 hPa NNW 12.1 km/h 22.2 km/h 69 % 0 mm
23:18 -7.5 °C -12.1 °C 1015.5 hPa WNW 12.6 km/h 24.1 km/h 70 % 0 mm
23:23 -7.4 °C -11.8 °C 1015.5 hPa West 9.3 km/h 20.4 km/h 71 % 0 mm
23:28 -7.5 °C -11.5 °C 1015.5 hPa West 12.2 km/h 25.9 km/h 73 % 0 mm
23:33 -7.4 °C -11.8 °C 1015.8 hPa NNW 14 km/h 24.1 km/h 71 % 0 mm
23:38 -7.4 °C -11.7 °C 1015.8 hPa SW 10 km/h 17.7 km/h 71 % 0 mm
23:43 -7.4 °C -11.7 °C 1015.8 hPa WSW 20.6 km/h 33.3 km/h 71 % 0 mm
23:48 -7.3 °C -11.9 °C 1016.1 hPa SSW 12.6 km/h 27.8 km/h 70 % 0 mm
23:53 -7.3 °C -11.9 °C 1016.1 hPa WNW 13.8 km/h 38.9 km/h 70 % 0 mm
23:58 -7.4 °C -12 °C 1016.5 hPa WNW 14.5 km/h 22.5 km/h 70 % 0 mm
Crab Meadow Weather
Compliments of Weather Underground - 3 mb

Script developed by  Jim McMurry - jmcmurry@mwt.net Adapted for the template by  Wim van der Kuil - Leuven-Template.eu

Weather Terms: Flood Warning - General or areal flooding of streets, low-lying areas, urban storm drains, creeks and small streams is occurring, imminent, or highly likely. Flood warnings are issued for flooding that occurs more than 6 hours after the excessive rainfall. These warnings are issued on a county by county basis by the local Weather Forecast Office in Upton and are generally in effect for 6 to 12 hours.